Terminal Aerodrome Forecast
Issued by NWS

Home | Current Version | Previous Version | Text Only | Print | Product List | Glossary On
Versions: 1 2 3 4 5 6 7 8 9 10 11 12
000
FTAK31 PAFA 190540
TAFAOR
TAF
PAOR 190540Z 1906/2006 VRB04KT P6SM VCSH SCT060 BKN100 BKN150
     FM190900 00000KT P6SM SCT080 BKN150
     FM192200 VRB04KT P6SM VCSH SCT060 BKN120=

USA.gov is the U.S. government's official web portal to all federal, state and local government web resources and services.